Time;durP1;ratioP1;P1;durP2;ratioP2;P2;SDS_P1;SDS_P2;PMS_P1;PMS_P2;Temp;Humidity;BMP_temperature;BMP_pressure;BME280_temperature;BME280_humidity;BME280_pressure;Samples;Min_cycle;Max_cycle;Signal;HPM_P1;HPM_P2
2023/08/15 00:01:49;;;;;;;7.30;4.82;;;;;;;;;;6289960;28;20134;-77
2023/08/15 00:04:51;;;;;;;5.75;4.85;;;;;;;;;;6278961;28;20524;-78
2023/08/15 00:07:52;;;;;;;6.30;4.77;;;;;;;;;;6308031;28;20433;-78
2023/08/15 00:10:54;;;;;;;7.07;4.88;;;;;;;;;;6281755;28;20071;-77
2023/08/15 00:13:56;;;;;;;5.85;4.63;;;;;;;;;;6300417;28;20044;-77
2023/08/15 00:16:58;;;;;;;10.80;5.03;;;;;;;;;;6282124;28;20536;-77
2023/08/15 00:20:00;;;;;;;9.35;5.00;;;;;;;;;;6294063;28;20097;-76
2023/08/15 00:23:01;;;;;;;7.75;5.20;;;;;;;;;;6305732;28;20071;-75
2023/08/15 00:26:03;;;;;;;9.43;5.05;;;;;;;;;;6298724;28;20086;-79
2023/08/15 00:29:04;;;;;;;8.55;5.13;;;;;;;;;;6293093;28;20059;-78
2023/08/15 00:32:06;;;;;;;10.10;5.38;;;;;;;;;;6295998;28;20053;-77
2023/08/15 00:35:10;;;;;;;6.95;4.70;;;;;;;;;;6293888;28;20044;-77
2023/08/15 00:38:12;;;;;;;5.35;4.22;;;;;;;;;;6281976;28;20055;-79
2023/08/15 00:41:13;;;;;;;6.90;4.75;;;;;;;;;;6273184;28;20050;-78
2023/08/15 00:44:15;;;;;;;6.07;4.55;;;;;;;;;;6272732;28;20067;-78
2023/08/15 00:47:19;;;;;;;10.53;4.83;;;;;;;;;;6291998;28;20044;-78
2023/08/15 00:50:22;;;;;;;7.43;4.30;;;;;;;;;;6276886;28;20040;-78
2023/08/15 00:53:25;;;;;;;7.60;4.90;;;;;;;;;;6294182;28;20052;-76
2023/08/15 00:56:27;;;;;;;5.70;4.55;;;;;;;;;;6277408;28;20040;-77
2023/08/15 00:59:28;;;;;;;10.65;5.25;;;;;;;;;;6290343;28;20051;-75
2023/08/15 01:02:30;;;;;;;7.05;4.85;;;;;;;;;;6270725;28;20391;-80
2023/08/15 01:05:32;;;;;;;9.70;5.60;;;;;;;;;;6304855;28;20128;-79
2023/08/15 01:08:34;;;;;;;6.00;4.70;;;;;;;;;;6272921;28;20047;-77
2023/08/15 01:11:48;;;;;;;10.18;5.20;;;;;;;;;;6285392;28;20048;-76
2023/08/15 01:14:59;;;;;;;8.60;4.90;;;;;;;;;;6289059;28;20040;-76
2023/08/15 01:18:01;;;;;;;8.73;4.85;;;;;;;;;;6307773;28;20044;-75
2023/08/15 01:21:04;;;;;;;10.57;5.15;;;;;;;;;;6285723;28;20045;-77
2023/08/15 01:24:05;;;;;;;;;;;;;;;;;;6284100;28;20094;-78
2023/08/15 01:27:07;;;;;;;8.02;4.70;;;;;;;;;;6302637;28;20290;-80
2023/08/15 01:30:09;;;;;;;7.30;5.03;;;;;;;;;;6289107;28;20048;-79
2023/08/15 01:33:18;;;;;;;11.33;5.37;;;;;;;;;;6291095;28;20460;-77
2023/08/15 01:36:33;;;;;;;5.88;4.70;;;;;;;;;;6292725;28;22723;-79
2023/08/15 01:39:38;;;;;;;6.78;4.88;;;;;;;;;;6275703;28;20063;-79
2023/08/15 01:42:40;;;;;;;5.93;4.53;;;;;;;;;;6291472;28;20040;-78
2023/08/15 01:45:42;;;;;;;6.90;4.75;;;;;;;;;;6270860;28;20037;-78
2023/08/15 01:48:44;;;;;;;9.52;4.97;;;;;;;;;;6277983;28;20139;-78
2023/08/15 01:51:46;;;;;;;8.55;5.20;;;;;;;;;;6287243;28;20041;-76
2023/08/15 01:54:47;;;;;;;8.90;5.25;;;;;;;;;;6281352;28;20037;-79
2023/08/15 01:57:49;;;;;;;8.93;4.93;;;;;;;;;;6291349;28;20045;-77
2023/08/15 02:00:50;;;;;;;6.63;4.97;;;;;;;;;;6305262;28;20159;-79
2023/08/15 02:03:52;;;;;;;10.43;5.43;;;;;;;;;;6280286;28;20067;-78
2023/08/15 02:06:54;;;;;;;9.80;5.80;;;;;;;;;;6308125;28;20049;-75
2023/08/15 02:09:56;;;;;;;8.30;5.50;;;;;;;;;;6277184;28;20045;-77
2023/08/15 02:12:58;;;;;;;11.80;5.95;;;;;;;;;;6276768;28;20037;-79
2023/08/15 02:16:00;;;;;;;8.77;5.33;;;;;;;;;;6277602;28;20044;-78
2023/08/15 02:19:02;;;;;;;11.13;6.30;;;;;;;;;;6277444;28;20455;-78
2023/08/15 02:22:04;;;;;;;6.97;4.90;;;;;;;;;;6289982;28;20044;-79
2023/08/15 02:25:06;;;;;;;9.05;5.30;;;;;;;;;;6286281;28;20048;-78
2023/08/15 02:28:07;;;;;;;9.93;5.95;;;;;;;;;;6275504;28;20040;-77
2023/08/15 02:31:10;;;;;;;9.38;6.25;;;;;;;;;;6289447;28;20040;-76
2023/08/15 02:34:12;;;;;;;;;;;;;;;;;;6287264;28;20060;-77
2023/08/15 02:37:15;;;;;;;9.70;6.10;;;;;;;;;;6284727;28;19933;-77
2023/08/15 02:40:17;;;;;;;9.10;5.45;;;;;;;;;;6267132;28;20070;-79
2023/08/15 02:43:18;;;;;;;6.40;5.00;;;;;;;;;;6293663;28;20407;-80
2023/08/15 02:46:20;;;;;;;7.63;4.93;;;;;;;;;;6277801;28;20052;-76
2023/08/15 02:49:22;;;;;;;8.43;5.55;;;;;;;;;;6272213;28;20040;-79
2023/08/15 02:52:23;;;;;;;9.43;5.85;;;;;;;;;;6289245;28;20040;-79
2023/08/15 02:55:25;;;;;;;9.13;5.63;;;;;;;;;;6273874;28;20059;-77
2023/08/15 02:58:27;;;;;;;8.15;5.05;;;;;;;;;;6310479;28;20040;-77
2023/08/15 03:01:29;;;;;;;9.48;5.43;;;;;;;;;;6267096;28;20064;-79
2023/08/15 03:04:30;;;;;;;7.70;4.82;;;;;;;;;;6307383;28;20055;-79
2023/08/15 03:07:32;;;;;;;10.50;5.20;;;;;;;;;;6250042;28;20304;-78
2023/08/15 03:10:36;;;;;;;11.60;5.72;;;;;;;;;;6267208;28;20052;-78
2023/08/15 03:13:37;;;;;;;7.70;5.95;;;;;;;;;;6246636;28;20040;-78
2023/08/15 03:16:39;;;;;;;9.95;5.57;;;;;;;;;;6229434;28;20110;-78
2023/08/15 03:19:41;;;;;;;12.60;6.53;;;;;;;;;;6247430;28;20038;-78
2023/08/15 03:22:43;;;;;;;10.00;6.20;;;;;;;;;;6259553;28;20542;-77
2023/08/15 03:25:56;;;;;;;9.25;6.18;;;;;;;;;;6264054;28;20051;-78
2023/08/15 03:29:01;;;;;;;8.13;5.85;;;;;;;;;;6256280;28;20045;-78
2023/08/15 03:32:02;;;;;;;7.15;5.13;;;;;;;;;;6235149;28;20049;-76
2023/08/15 03:35:08;;;;;;;9.18;5.03;;;;;;;;;;6264447;28;20129;-76
2023/08/15 03:38:18;;;;;;;7.57;5.45;;;;;;;;;;6254421;28;20080;-77
2023/08/15 03:41:20;;;;;;;8.80;5.20;;;;;;;;;;6251855;28;20056;-77
2023/08/15 03:44:22;;;;;;;10.10;5.38;;;;;;;;;;6255975;28;20060;-77
2023/08/15 03:47:24;;;;;;;7.38;5.47;;;;;;;;;;6275464;28;20052;-77
2023/08/15 03:50:25;;;;;;;10.40;5.68;;;;;;;;;;6250509;28;20059;-76
2023/08/15 03:53:28;;;;;;;8.23;5.20;;;;;;;;;;6257962;28;20056;-77
2023/08/15 03:56:31;;;;;;;8.77;6.00;;;;;;;;;;6254636;28;20108;-75
2023/08/15 03:59:33;;;;;;;11.13;5.88;;;;;;;;;;6290054;28;20538;-77
2023/08/15 04:02:35;;;;;;;9.80;6.13;;;;;;;;;;6257431;28;20545;-77
2023/08/15 04:05:37;;;;;;;8.95;5.57;;;;;;;;;;6256059;28;20043;-78
2023/08/15 04:08:38;;;;;;;8.43;5.50;;;;;;;;;;6256460;28;20051;-77
2023/08/15 04:11:40;;;;;;;8.25;5.57;;;;;;;;;;6255951;28;20052;-77
2023/08/15 04:14:42;;;;;;;8.48;5.32;;;;;;;;;;6250379;28;20045;-77
2023/08/15 04:17:44;;;;;;;14.68;6.60;;;;;;;;;;6255929;28;20078;-77
2023/08/15 04:20:46;;;;;;;7.70;6.07;;;;;;;;;;6285573;28;20045;-76
2023/08/15 04:23:47;;;;;;;9.20;6.60;;;;;;;;;;6254852;28;20060;-77
2023/08/15 04:26:49;;;;;;;9.95;5.88;;;;;;;;;;6253709;28;20044;-77
2023/08/15 04:29:51;;;;;;;8.35;6.32;;;;;;;;;;6252430;28;20411;-76
2023/08/15 04:32:52;;;;;;;11.17;6.30;;;;;;;;;;6258724;28;20048;-77
2023/08/15 04:35:54;;;;;;;10.30;6.70;;;;;;;;;;6254928;28;20052;-77
2023/08/15 04:38:56;;;;;;;9.63;6.53;;;;;;;;;;6248426;28;20042;-76
2023/08/15 04:41:58;;;;;;;9.27;6.77;;;;;;;;;;6286616;28;20143;-77
2023/08/15 04:44:59;;;;;;;11.48;6.78;;;;;;;;;;6255855;28;20415;-78
2023/08/15 04:48:01;;;;;;;9.30;6.95;;;;;;;;;;6270237;28;20037;-76
2023/08/15 04:51:03;;;;;;;12.35;7.15;;;;;;;;;;6282180;28;20045;-76
2023/08/15 04:54:05;;;;;;;12.52;7.85;;;;;;;;;;6258166;28;20041;-78
2023/08/15 04:57:07;;;;;;;11.30;8.20;;;;;;;;;;6240672;28;20044;-77
2023/08/15 05:00:11;;;;;;;12.73;7.60;;;;;;;;;;6253111;28;20451;-76
2023/08/15 05:03:13;;;;;;;8.30;6.38;;;;;;;;;;6254907;28;20247;-75
2023/08/15 05:06:14;;;;;;;10.13;6.40;;;;;;;;;;6256517;28;20044;-77
2023/08/15 05:09:17;;;;;;;7.70;5.15;;;;;;;;;;6260798;28;20041;-75
2023/08/15 05:12:18;;;;;;;6.55;5.40;;;;;;;;;;6259103;28;20045;-77
2023/08/15 05:15:20;;;;;;;8.35;4.82;;;;;;;;;;6260801;28;20534;-76
2023/08/15 05:18:22;;;;;;;6.93;5.07;;;;;;;;;;6270379;28;20045;-76
2023/08/15 05:21:23;;;;;;;9.77;4.90;;;;;;;;;;6274475;28;20045;-76
2023/08/15 05:24:25;;;;;;;7.70;5.55;;;;;;;;;;6265440;28;20051;-78
2023/08/15 05:27:28;;;;;;;8.98;5.72;;;;;;;;;;6258938;28;20040;-78
2023/08/15 05:30:33;;;;;;;8.70;5.22;;;;;;;;;;6288361;28;20503;-77
2023/08/15 05:33:35;;;;;;;8.30;5.57;;;;;;;;;;6262017;28;20673;-76
2023/08/15 05:36:38;;;;;;;7.10;5.25;;;;;;;;;;6267790;28;20100;-76
2023/08/15 05:39:40;;;;;;;9.48;6.10;;;;;;;;;;6265541;28;20045;-78
2023/08/15 05:42:41;;;;;;;9.70;5.57;;;;;;;;;;6258130;28;20053;-77
2023/08/15 05:45:46;;;;;;;7.13;4.95;;;;;;;;;;6260318;28;20072;-76
2023/08/15 05:48:47;;;;;;;6.60;4.60;;;;;;;;;;6257987;28;20048;-77
2023/08/15 05:51:49;;;;;;;5.35;4.13;;;;;;;;;;6267894;28;20534;-76
2023/08/15 05:54:50;;;;;;;4.25;3.85;;;;;;;;;;6260502;28;20102;-76
2023/08/15 05:57:52;;;;;;;8.82;4.75;;;;;;;;;;6260138;28;20495;-77
2023/08/15 06:00:57;;;;;;;3.75;3.35;;;;;;;;;;6265818;28;20045;-79
2023/08/15 06:03:58;;;;;;;7.03;3.25;;;;;;;;;;6260822;28;20045;-77
2023/08/15 06:07:02;;;;;;;4.30;3.00;;;;;;;;;;6281503;28;20051;-78
2023/08/15 06:10:04;;;;;;;4.75;2.95;;;;;;;;;;6263265;28;20033;-75
2023/08/15 06:13:06;;;;;;;5.75;3.63;;;;;;;;;;6259427;28;20037;-77
2023/08/15 06:16:08;;;;;;;4.97;3.72;;;;;;;;;;6262128;28;20614;-77
2023/08/15 06:19:13;;;;;;;6.45;3.70;;;;;;;;;;6266352;28;20507;-77
2023/08/15 06:22:15;;;;;;;4.47;3.58;;;;;;;;;;6263362;28;20529;-75
2023/08/15 06:25:16;;;;;;;7.17;3.53;;;;;;;;;;6268576;28;20057;-76
2023/08/15 06:28:20;;;;;;;3.83;3.40;;;;;;;;;;6264989;28;20110;-78
2023/08/15 06:31:22;;;;;;;3.95;2.88;;;;;;;;;;6265450;28;20047;-77
2023/08/15 06:34:23;;;;;;;4.25;3.08;;;;;;;;;;6266188;28;20051;-77
2023/08/15 06:37:25;;;;;;;3.42;2.60;;;;;;;;;;6260383;28;20033;-77
2023/08/15 06:40:27;;;;;;;4.47;2.78;;;;;;;;;;6262309;28;20132;-75
2023/08/15 06:43:28;;;;;;;3.45;2.20;;;;;;;;;;6264908;28;20047;-78
2023/08/15 06:46:30;;;;;;;2.63;2.00;;;;;;;;;;6267400;28;20114;-77
2023/08/15 06:49:32;;;;;;;2.95;1.52;;;;;;;;;;6297542;28;20051;-76
2023/08/15 06:52:34;;;;;;;2.85;1.60;;;;;;;;;;6264338;28;20095;-78
2023/08/15 06:55:36;;;;;;;1.45;1.35;;;;;;;;;;6267023;28;20049;-78
2023/08/15 06:58:37;;;;;;;2.05;1.30;;;;;;;;;;6264244;28;20064;-78
2023/08/15 07:01:39;;;;;;;2.35;1.48;;;;;;;;;;6265093;28;20048;-78
2023/08/15 07:04:41;;;;;;;1.95;1.20;;;;;;;;;;6266234;28;20576;-77
2023/08/15 07:07:43;;;;;;;2.47;1.35;;;;;;;;;;6265733;28;20076;-77
2023/08/15 07:10:45;;;;;;;1.45;1.35;;;;;;;;;;6264252;28;20095;-78
2023/08/15 07:13:46;;;;;;;2.17;1.70;;;;;;;;;;6263390;28;20052;-78
2023/08/15 07:16:49;;;;;;;3.92;1.60;;;;;;;;;;6263013;28;20526;-79
2023/08/15 07:19:51;;;;;;;;;;;;;;;;;;6262508;28;20450;-79
2023/08/15 07:22:55;;;;;;;2.60;1.77;;;;;;;;;;6273237;28;19956;-79
2023/08/15 07:25:57;;;;;;;2.08;1.75;;;;;;;;;;6263759;28;20049;-79
2023/08/15 07:29:00;;;;;;;1.75;1.20;;;;;;;;;;6263110;28;20548;-77
2023/08/15 07:32:02;;;;;;;2.17;1.67;;;;;;;;;;6287828;28;20045;-81
2023/08/15 07:35:06;;;;;;;2.13;1.50;;;;;;;;;;6290366;28;20049;-77
2023/08/15 07:38:08;;;;;;;2.58;1.52;;;;;;;;;;6288595;28;20060;-78
2023/08/15 07:41:09;;;;;;;1.60;1.50;;;;;;;;;;6291412;28;20083;-79
2023/08/15 07:44:11;;;;;;;1.40;1.20;;;;;;;;;;6292730;28;20079;-81
2023/08/15 07:47:13;;;;;;;1.30;1.20;;;;;;;;;;6288546;28;20048;-80
2023/08/15 07:50:17;;;;;;;2.30;1.35;;;;;;;;;;6284388;28;20055;-80
2023/08/15 07:53:19;;;;;;;1.50;1.40;;;;;;;;;;6270055;28;20036;-79
2023/08/15 07:56:20;;;;;;;1.50;1.27;;;;;;;;;;6269653;28;20058;-80
2023/08/15 07:59:22;;;;;;;2.00;1.38;;;;;;;;;;6289429;28;20056;-79
2023/08/15 08:02:24;;;;;;;2.55;1.30;;;;;;;;;;6289520;28;20040;-78
2023/08/15 08:05:26;;;;;;;2.00;1.50;;;;;;;;;;6307169;28;20087;-80
2023/08/15 08:08:28;;;;;;;2.33;1.55;;;;;;;;;;6273578;28;20044;-80
2023/08/15 08:11:30;;;;;;;1.40;1.30;;;;;;;;;;6290307;28;20044;-78
2023/08/15 08:14:31;;;;;;;3.20;1.30;;;;;;;;;;6272140;28;20521;-81
2023/08/15 08:17:36;;;;;;;2.42;1.48;;;;;;;;;;6274931;28;20050;-81
2023/08/15 08:20:39;;;;;;;3.23;1.57;;;;;;;;;;6272041;28;20518;-80
2023/08/15 08:23:40;;;;;;;1.90;1.30;;;;;;;;;;6272506;28;20473;-80
2023/08/15 08:26:42;;;;;;;1.63;1.53;;;;;;;;;;6288035;28;20044;-79
2023/08/15 08:29:44;;;;;;;1.73;1.40;;;;;;;;;;6263730;28;20053;-80
2023/08/15 08:32:46;;;;;;;1.88;1.23;;;;;;;;;;6287263;28;20048;-81
2023/08/15 08:35:48;;;;;;;1.73;1.17;;;;;;;;;;6289901;28;20037;-79
2023/08/15 08:38:50;;;;;;;2.17;1.30;;;;;;;;;;6288681;28;20044;-79
2023/08/15 08:41:52;;;;;;;2.65;1.48;;;;;;;;;;6273584;28;20532;-79
2023/08/15 08:44:55;;;;;;;1.70;1.47;;;;;;;;;;6280000;28;20071;-80
2023/08/15 08:47:58;;;;;;;1.48;1.27;;;;;;;;;;6291565;28;20051;-80
2023/08/15 08:51:00;;;;;;;1.73;1.48;;;;;;;;;;6289525;28;20051;-76
2023/08/15 08:54:01;;;;;;;1.90;1.27;;;;;;;;;;6294980;28;20163;-78
2023/08/15 08:57:05;;;;;;;2.23;1.23;;;;;;;;;;6263176;28;20101;-79
2023/08/15 09:00:09;;;;;;;2.65;1.35;;;;;;;;;;6306433;28;20435;-79
2023/08/15 09:03:11;;;;;;;2.03;1.33;;;;;;;;;;6300786;28;20039;-78
2023/08/15 09:06:13;;;;;;;3.60;1.40;;;;;;;;;;6298761;28;20406;-78
2023/08/15 09:09:14;;;;;;;3.88;1.60;;;;;;;;;;6292886;28;20045;-78
2023/08/15 09:12:45;;;;;;;2.70;1.50;;;;;;;;;;6291486;28;20041;-80
2023/08/15 09:15:55;;;;;;;2.42;1.70;;;;;;;;;;6286833;28;20063;-78
2023/08/15 09:19:02;;;;;;;1.38;1.27;;;;;;;;;;6283454;28;20044;-78
2023/08/15 09:22:04;;;;;;;1.95;1.20;;;;;;;;;;6290064;28;20056;-78
2023/08/15 09:25:07;;;;;;;;;;;;;;;;;;6279566;28;20056;-79
2023/08/15 09:28:09;;;;;;;;;;;;;;;;;;6297813;28;19931;-78
2023/08/15 09:31:11;;;;;;;2.50;1.13;;;;;;;;;;6297781;28;19976;-79
2023/08/15 09:34:13;;;;;;;1.63;1.45;;;;;;;;;;6293606;28;20048;-79
2023/08/15 09:37:15;;;;;;;1.40;1.10;;;;;;;;;;6296026;28;20049;-79
2023/08/15 09:40:25;;;;;;;2.78;2.15;;;;;;;;;;6293436;28;20154;-81
2023/08/15 09:43:29;;;;;;;2.40;1.50;;;;;;;;;;6281345;28;20506;-81
2023/08/15 09:46:31;;;;;;;2.53;1.30;;;;;;;;;;6295106;28;20068;-80
2023/08/15 09:49:33;;;;;;;;;;;;;;;;;;6276113;28;20041;-80
2023/08/15 09:52:39;;;;;;;1.23;1.17;;;;;;;;;;6293316;28;19982;-78
2023/08/15 09:55:41;;;;;;;1.52;1.30;;;;;;;;;;6294736;28;20048;-79
2023/08/15 09:58:43;;;;;;;1.83;1.17;;;;;;;;;;6278343;28;20040;-79
2023/08/15 10:01:46;;;;;;;;;;;;;;;;;;6293200;28;20060;-78
2023/08/15 10:04:59;;;;;;;1.45;1.20;;;;;;;;;;6296855;28;20007;-79
2023/08/15 10:08:01;;;;;;;2.45;1.25;;;;;;;;;;6261821;28;20045;-76
2023/08/15 10:11:07;;;;;;;2.80;1.25;;;;;;;;;;6269804;28;20052;-77
2023/08/15 10:14:10;;;;;;;0.95;0.93;;;;;;;;;;6255238;28;20045;-79
2023/08/15 10:17:12;;;;;;;1.63;1.10;;;;;;;;;;6268953;28;20052;-77
2023/08/15 10:20:19;;;;;;;1.38;1.25;;;;;;;;;;6268282;28;20130;-78
2023/08/15 10:23:29;;;;;;;2.60;1.30;;;;;;;;;;6267166;28;20045;-80
2023/08/15 10:26:31;;;;;;;2.05;1.17;;;;;;;;;;6271628;28;20069;-79
2023/08/15 10:29:58;;;;;;;2.95;1.08;;;;;;;;;;6249429;28;20108;-80
2023/08/15 10:33:11;;;;;;;2.30;1.30;;;;;;;;;;6267560;28;20068;-79
2023/08/15 10:36:12;;;;;;;1.50;1.30;;;;;;;;;;6263662;28;20053;-80
2023/08/15 10:39:15;;;;;;;2.65;1.20;;;;;;;;;;6266570;28;20052;-80
2023/08/15 10:42:16;;;;;;;1.58;1.10;;;;;;;;;;6262021;28;20104;-78
2023/08/15 10:45:19;;;;;;;2.03;1.40;;;;;;;;;;6275029;28;20084;-76
2023/08/15 10:48:51;;;;;;;1.40;1.30;;;;;;;;;;6274615;28;20045;-78
2023/08/15 10:51:58;;;;;;;1.77;1.10;;;;;;;;;;6254513;28;20076;-80
2023/08/15 10:55:00;;;;;;;2.17;1.10;;;;;;;;;;6261862;28;20151;-79
2023/08/15 10:58:10;;;;;;;2.17;1.10;;;;;;;;;;6264737;28;20419;-80
2023/08/15 11:01:19;;;;;;;1.40;1.30;;;;;;;;;;6258742;28;20056;-78
2023/08/15 11:04:20;;;;;;;1.42;1.10;;;;;;;;;;6259142;28;20073;-79
2023/08/15 11:07:26;;;;;;;1.10;0.90;;;;;;;;;;6257107;28;20443;-77
2023/08/15 11:10:27;;;;;;;1.50;1.17;;;;;;;;;;6281039;28;20041;-78
2023/08/15 11:13:29;;;;;;;2.00;1.20;;;;;;;;;;6260195;28;20069;-78
2023/08/15 11:16:30;;;;;;;1.50;1.40;;;;;;;;;;6254801;28;20032;-78
2023/08/15 11:19:33;;;;;;;1.83;1.25;;;;;;;;;;6258166;28;20741;-77
2023/08/15 11:22:35;;;;;;;1.25;1.15;;;;;;;;;;6258045;28;20045;-77
2023/08/15 11:25:36;;;;;;;2.08;1.30;;;;;;;;;;6256732;28;20088;-76
2023/08/15 11:28:38;;;;;;;1.20;1.10;;;;;;;;;;6255358;28;20118;-79
2023/08/15 11:31:40;;;;;;;1.30;1.20;;;;;;;;;;6255060;28;20040;-79
2023/08/15 11:34:42;;;;;;;2.17;1.20;;;;;;;;;;6255486;28;20044;-78
2023/08/15 11:37:44;;;;;;;0.97;0.80;;;;;;;;;;6253689;28;20068;-81
2023/08/15 11:40:46;;;;;;;2.43;1.37;;;;;;;;;;6254930;28;20456;-80
2023/08/15 11:43:48;;;;;;;;;;;;;;;;;;6256614;28;20056;-82
2023/08/15 11:46:49;;;;;;;1.30;1.20;;;;;;;;;;6260615;28;20034;-81
2023/08/15 11:49:55;;;;;;;1.77;1.10;;;;;;;;;;6266222;28;20205;-82
2023/08/15 11:52:57;;;;;;;2.03;1.00;;;;;;;;;;6257296;28;20037;-80
2023/08/15 11:55:59;;;;;;;1.63;1.08;;;;;;;;;;6266257;28;20045;-81
2023/08/15 11:59:03;;;;;;;1.08;0.98;;;;;;;;;;6269166;28;20049;-82
2023/08/15 12:02:05;;;;;;;2.65;1.15;;;;;;;;;;6260939;28;20060;-82
2023/08/15 12:05:11;;;;;;;1.35;1.25;;;;;;;;;;6256785;28;20052;-79
2023/08/15 12:08:15;;;;;;;1.88;1.30;;;;;;;;;;6268990;28;20045;-78
2023/08/15 12:11:20;;;;;;;3.72;2.92;;;;;;;;;;6252881;28;20114;-77
2023/08/15 12:14:22;;;;;;;5.43;3.70;;;;;;;;;;6252306;28;20041;-78
2023/08/15 12:17:23;;;;;;;4.78;2.03;;;;;;;;;;6250377;28;20102;-76
2023/08/15 12:20:25;;;;;;;4.10;1.92;;;;;;;;;;6253723;28;20044;-78
2023/08/15 12:23:27;;;;;;;5.53;2.22;;;;;;;;;;6249177;28;20067;-79
2023/08/15 12:26:30;;;;;;;;;;;;;;;;;;6251877;28;20116;-78
2023/08/15 12:29:31;;;;;;;2.25;1.58;;;;;;;;;;6248056;28;19921;-77
2023/08/15 12:32:53;;;;;;;3.60;1.90;;;;;;;;;;6256690;28;25448;-76
2023/08/15 12:35:55;;;;;;;3.55;1.90;;;;;;;;;;6266541;28;20121;-76
2023/08/15 12:38:57;;;;;;;3.22;1.50;;;;;;;;;;6249651;28;20052;-77
2023/08/15 12:41:58;;;;;;;4.22;1.38;;;;;;;;;;6256678;28;20084;-77
2023/08/15 12:45:00;;;;;;;2.58;1.90;;;;;;;;;;6242844;28;20634;-77
2023/08/15 12:48:01;;;;;;;4.22;1.80;;;;;;;;;;6255992;28;20041;-78
2023/08/15 12:51:03;;;;;;;3.30;1.87;;;;;;;;;;6241961;28;20507;-75
2023/08/15 12:54:05;;;;;;;2.67;1.70;;;;;;;;;;6254725;28;20051;-77
2023/08/15 12:57:07;;;;;;;3.10;1.70;;;;;;;;;;6253297;28;20087;-77
2023/08/15 13:00:09;;;;;;;3.17;2.13;;;;;;;;;;6250361;28;20064;-76
2023/08/15 13:03:11;;;;;;;2.63;1.95;;;;;;;;;;6252316;28;20052;-76
2023/08/15 13:06:12;;;;;;;3.75;2.30;;;;;;;;;;6248932;28;20414;-77
2023/08/15 13:09:14;;;;;;;4.18;2.30;;;;;;;;;;6250866;28;20069;-77
2023/08/15 13:12:16;;;;;;;3.07;1.70;;;;;;;;;;6249776;28;20064;-77
2023/08/15 13:15:17;;;;;;;2.10;1.70;;;;;;;;;;6256999;28;20037;-76
2023/08/15 13:18:19;;;;;;;3.40;2.03;;;;;;;;;;6249930;28;20041;-78
2023/08/15 13:21:21;;;;;;;2.88;1.70;;;;;;;;;;6248701;28;21369;-77
2023/08/15 13:24:23;;;;;;;2.78;1.52;;;;;;;;;;6248352;28;20142;-77
2023/08/15 13:27:25;;;;;;;2.63;1.77;;;;;;;;;;6259472;28;20099;-78
2023/08/15 13:30:27;;;;;;;1.70;1.60;;;;;;;;;;6259033;28;20151;-78
2023/08/15 13:33:29;;;;;;;3.33;1.65;;;;;;;;;;6253781;28;20040;-77
2023/08/15 13:36:31;;;;;;;2.53;1.90;;;;;;;;;;6277656;28;20403;-77
2023/08/15 13:39:32;;;;;;;3.30;2.17;;;;;;;;;;6283104;28;20109;-77
2023/08/15 13:42:34;;;;;;;2.90;2.00;;;;;;;;;;6280875;28;20074;-75
2023/08/15 13:45:41;;;;;;;1.88;1.75;;;;;;;;;;6283245;28;20037;-77
2023/08/15 13:48:42;;;;;;;2.90;1.98;;;;;;;;;;6284428;28;20082;-78
2023/08/15 13:51:44;;;;;;;3.15;2.10;;;;;;;;;;6289939;28;20106;-78
2023/08/15 13:54:45;;;;;;;4.65;2.35;;;;;;;;;;6293749;28;20134;-77
2023/08/15 13:57:47;;;;;;;2.50;2.30;;;;;;;;;;6289835;28;20174;-77
2023/08/15 14:00:49;;;;;;;2.22;2.03;;;;;;;;;;6270488;28;20137;-77
2023/08/15 14:03:50;;;;;;;3.60;2.10;;;;;;;;;;6290734;28;20047;-77
2023/08/15 14:06:55;;;;;;;3.92;2.40;;;;;;;;;;6278246;28;20123;-79
2023/08/15 14:09:57;;;;;;;3.65;2.22;;;;;;;;;;6273072;28;20052;-77
2023/08/15 14:12:59;;;;;;;3.80;2.67;;;;;;;;;;6292457;28;20730;-78
2023/08/15 14:16:00;;;;;;;4.93;2.40;;;;;;;;;;6293067;28;20056;-78
2023/08/15 14:19:02;;;;;;;3.70;2.30;;;;;;;;;;6288965;28;20450;-76
2023/08/15 14:22:04;;;;;;;3.63;2.88;;;;;;;;;;6287495;28;20044;-76
2023/08/15 14:25:07;;;;;;;3.83;2.70;;;;;;;;;;6287301;28;20040;-77
2023/08/15 14:28:08;;;;;;;5.47;2.80;;;;;;;;;;6290912;28;20443;-77
2023/08/15 14:31:10;;;;;;;3.40;2.90;;;;;;;;;;6291693;28;20044;-77
2023/08/15 14:34:12;;;;;;;4.10;2.87;;;;;;;;;;6294590;28;20484;-80
2023/08/15 14:37:13;;;;;;;4.22;2.92;;;;;;;;;;6284072;28;20044;-75
2023/08/15 14:40:15;;;;;;;3.08;2.78;;;;;;;;;;6294946;28;20040;-76
2023/08/15 14:43:17;;;;;;;4.38;3.35;;;;;;;;;;6294460;28;20124;-76
2023/08/15 14:46:19;;;;;;;6.25;3.40;;;;;;;;;;6287571;28;20067;-78
2023/08/15 14:49:22;;;;;;;5.00;3.00;;;;;;;;;;6298243;28;20060;-78
2023/08/15 14:52:25;;;;;;;6.03;3.33;;;;;;;;;;6297534;28;20058;-77
2023/08/15 14:55:27;;;;;;;5.18;3.10;;;;;;;;;;6285908;28;20046;-79
2023/08/15 14:58:28;;;;;;;4.05;3.08;;;;;;;;;;6280357;28;20055;-77
2023/08/15 15:01:30;;;;;;;3.90;3.03;;;;;;;;;;6292138;28;20044;-76
2023/08/15 15:04:32;;;;;;;4.43;3.67;;;;;;;;;;6294850;28;20047;-78
2023/08/15 15:07:33;;;;;;;4.35;3.33;;;;;;;;;;6292198;28;20051;-78
2023/08/15 15:10:35;;;;;;;7.22;3.70;;;;;;;;;;6291683;28;20059;-77
2023/08/15 15:13:37;;;;;;;4.37;3.50;;;;;;;;;;6306247;28;20041;-77
2023/08/15 15:16:38;;;;;;;6.28;3.97;;;;;;;;;;6314062;28;20048;-79
2023/08/15 15:19:40;;;;;;;5.75;4.03;;;;;;;;;;6291499;28;20718;-78
2023/08/15 15:22:42;;;;;;;8.77;4.90;;;;;;;;;;6285399;28;20044;-77
2023/08/15 15:25:50;;;;;;;7.10;4.40;;;;;;;;;;6288511;28;20068;-76
2023/08/15 15:28:52;;;;;;;6.70;4.05;;;;;;;;;;6280197;28;20053;-77
2023/08/15 15:31:53;;;;;;;4.15;3.75;;;;;;;;;;6281953;28;20045;-75
2023/08/15 15:34:55;;;;;;;5.20;4.45;;;;;;;;;;6275755;28;20053;-77
2023/08/15 15:37:57;;;;;;;7.18;4.53;;;;;;;;;;6269477;28;20157;-76
2023/08/15 15:40:58;;;;;;;5.18;4.07;;;;;;;;;;6280196;28;20068;-76
2023/08/15 15:44:01;;;;;;;6.85;4.25;;;;;;;;;;6286040;28;20427;-75
2023/08/15 15:47:03;;;;;;;5.38;3.50;;;;;;;;;;6286489;28;20045;-76
2023/08/15 15:50:05;;;;;;;4.47;3.30;;;;;;;;;;6301696;28;20044;-77
2023/08/15 15:53:09;;;;;;;4.13;3.22;;;;;;;;;;6301867;28;20033;-78
2023/08/15 15:56:10;;;;;;;5.30;2.92;;;;;;;;;;6318150;28;20101;-76
2023/08/15 15:59:12;;;;;;;6.22;4.07;;;;;;;;;;6299134;28;20162;-79
2023/08/15 16:02:21;;;;;;;5.90;5.00;;;;;;;;;;6296508;28;20503;-76
2023/08/15 16:05:29;;;;;;;5.53;3.08;;;;;;;;;;6307408;28;20100;-76
2023/08/15 16:09:02;;;;;;;3.28;2.90;;;;;;;;;;6275940;28;20048;-79
2023/08/15 16:12:22;;;;;;;3.67;2.22;;;;;;;;;;6289904;28;20041;-77
2023/08/15 16:15:24;;;;;;;2.83;2.53;;;;;;;;;;6275605;28;20094;-78
2023/08/15 16:18:26;;;;;;;2.50;2.22;;;;;;;;;;6268848;28;20052;-76
2023/08/15 16:21:28;;;;;;;3.60;2.50;;;;;;;;;;6308040;28;20190;-76
2023/08/15 16:24:29;;;;;;;2.97;2.47;;;;;;;;;;6277369;28;20049;-77
2023/08/15 16:27:31;;;;;;;3.55;2.55;;;;;;;;;;6283485;28;20106;-77
2023/08/15 16:30:32;;;;;;;2.88;2.40;;;;;;;;;;6295557;28;20448;-78
2023/08/15 16:33:34;;;;;;;2.63;2.35;;;;;;;;;;6296195;28;20040;-77
2023/08/15 16:36:36;;;;;;;3.80;2.47;;;;;;;;;;6288472;28;20063;-78
2023/08/15 16:39:37;;;;;;;4.93;2.53;;;;;;;;;;6264270;28;20065;-77
2023/08/15 16:42:39;;;;;;;4.07;2.60;;;;;;;;;;6255267;28;20136;-78
2023/08/15 16:45:42;;;;;;;4.05;2.97;;;;;;;;;;6289522;28;20056;-75
2023/08/15 16:48:44;;;;;;;3.10;2.30;;;;;;;;;;6289140;28;20037;-79
2023/08/15 16:51:46;;;;;;;3.63;2.58;;;;;;;;;;6307963;28;20159;-78
2023/08/15 16:54:48;;;;;;;3.78;2.25;;;;;;;;;;6294759;28;20056;-77
2023/08/15 16:57:49;;;;;;;2.90;2.00;;;;;;;;;;6291224;28;20056;-77
2023/08/15 17:00:51;;;;;;;3.13;2.50;;;;;;;;;;6275400;28;20106;-77
2023/08/15 17:03:53;;;;;;;3.33;2.30;;;;;;;;;;6279626;28;20059;-78
2023/08/15 17:06:55;;;;;;;5.07;2.50;;;;;;;;;;6286524;28;20166;-77
2023/08/15 17:09:56;;;;;;;3.88;2.30;;;;;;;;;;6285655;28;20091;-77
2023/08/15 17:12:58;;;;;;;2.95;2.60;;;;;;;;;;6282946;28;20048;-77
2023/08/15 17:16:00;;;;;;;2.88;2.25;;;;;;;;;;6291075;28;20436;-76
2023/08/15 17:19:01;;;;;;;5.18;2.25;;;;;;;;;;6283907;28;20091;-76
2023/08/15 17:22:03;;;;;;;3.47;2.43;;;;;;;;;;6282651;28;20122;-78
2023/08/15 17:25:05;;;;;;;3.77;2.43;;;;;;;;;;6289706;28;20048;-76
2023/08/15 17:28:07;;;;;;;3.78;2.03;;;;;;;;;;6281404;28;20052;-76
2023/08/15 17:31:09;;;;;;;3.22;2.10;;;;;;;;;;6287777;28;20044;-78
2023/08/15 17:34:11;;;;;;;2.42;1.95;;;;;;;;;;6287824;28;20043;-78
2023/08/15 17:37:12;;;;;;;3.08;2.05;;;;;;;;;;6283743;28;20049;-77
2023/08/15 17:40:14;;;;;;;2.97;2.03;;;;;;;;;;6288195;28;20037;-77
2023/08/15 17:43:16;;;;;;;2.77;2.00;;;;;;;;;;6265061;28;20037;-78
2023/08/15 17:46:17;;;;;;;5.38;2.30;;;;;;;;;;6282546;28;20068;-75
2023/08/15 17:49:21;;;;;;;2.50;2.30;;;;;;;;;;6267462;28;20253;-77
2023/08/15 17:52:23;;;;;;;3.35;2.40;;;;;;;;;;6279082;28;20124;-76
2023/08/15 17:55:25;;;;;;;3.55;2.28;;;;;;;;;;6285318;28;20044;-77
2023/08/15 17:58:45;;;;;;;3.78;2.10;;;;;;;;;;6304276;28;20055;-76
2023/08/15 18:01:47;;;;;;;3.42;2.40;;;;;;;;;;6286109;28;20080;-76
2023/08/15 18:04:49;;;;;;;3.20;2.42;;;;;;;;;;6271672;28;20106;-77
2023/08/15 18:07:51;;;;;;;3.70;2.10;;;;;;;;;;6274680;28;20048;-77
2023/08/15 18:10:55;;;;;;;2.38;2.13;;;;;;;;;;6285131;28;20041;-75
2023/08/15 18:13:57;;;;;;;2.83;2.30;;;;;;;;;;6262730;28;20642;-76
2023/08/15 18:17:00;;;;;;;10.00;2.90;;;;;;;;;;6284073;28;20052;-76
2023/08/15 18:20:02;;;;;;;4.80;2.67;;;;;;;;;;6269093;28;20041;-77